Time;durP1;ratioP1;P1;durP2;ratioP2;P2;SDS_P1;SDS_P2;PMS_P1;PMS_P2;Temp;Humidity;BMP_temperature;BMP_pressure;BME280_temperature;BME280_humidity;BME280_pressure;Samples;Min_cycle;Max_cycle;Signal;HPM_P1;HPM_P2
2024/01/20 00:01:55;;;;;;;12.77;5.80;;;1.60;99.90;;;;;;5095907;28;20051;-81
2024/01/20 00:04:21;;;;;;;14.10;5.57;;;1.60;99.90;;;;;;5095516;28;20559;-82
2024/01/20 00:06:47;;;;;;;14.67;5.90;;;1.60;99.90;;;;;;5095636;28;20131;-82
2024/01/20 00:09:13;;;;;;;17.13;6.60;;;1.60;99.90;;;;;;5095789;28;20474;-82
2024/01/20 00:11:38;;;;;;;15.93;6.40;;;1.60;99.90;;;;;;5095666;28;20059;-82
2024/01/20 00:14:04;;;;;;;17.77;6.10;;;1.60;99.90;;;;;;5095734;28;20470;-82
2024/01/20 00:16:30;;;;;;;18.83;7.20;;;1.60;99.90;;;;;;5095492;28;20493;-81
2024/01/20 00:18:57;;;;;;;21.13;6.37;;;1.60;99.90;;;;;;5094765;28;20101;-82
2024/01/20 00:21:23;;;;;;;13.40;6.65;;;1.60;99.90;;;;;;5094462;28;20040;-82
2024/01/20 00:23:49;;;;;;;14.55;6.85;;;1.60;99.90;;;;;;5095314;28;20097;-82
2024/01/20 00:26:15;;;;;;;17.77;7.07;;;1.60;99.90;;;;;;5095491;28;20051;-82
2024/01/20 00:28:40;;;;;;;16.93;6.33;;;1.60;99.90;;;;;;5094178;28;20048;-82
2024/01/20 00:31:06;;;;;;;19.37;6.83;;;1.60;99.90;;;;;;5096015;28;20040;-83
2024/01/20 00:33:31;;;;;;;23.63;6.70;;;1.50;99.90;;;;;;5095196;28;20040;-82
2024/01/20 00:35:57;;;;;;;15.33;7.13;;;1.60;99.90;;;;;;5095319;28;20122;-83
2024/01/20 00:38:25;;;;;;;15.60;7.00;;;1.60;99.90;;;;;;5094145;28;20040;-83
2024/01/20 00:40:51;;;;;;;21.17;9.13;;;1.60;99.90;;;;;;5095026;28;20055;-83
2024/01/20 00:43:16;;;;;;;15.37;8.60;;;1.70;99.90;;;;;;5093569;28;20036;-83
2024/01/20 00:45:42;;;;;;;14.33;8.63;;;1.60;99.90;;;;;;5094892;28;20040;-83
2024/01/20 00:48:08;;;;;;;14.57;8.40;;;1.60;99.90;;;;;;5077094;28;20051;-84
2024/01/20 00:50:34;;;;;;;18.43;8.47;;;1.60;99.90;;;;;;5094810;28;20075;-82
2024/01/20 00:53:00;;;;;;;18.50;8.87;;;1.60;99.90;;;;;;5076877;28;20055;-84
2024/01/20 00:55:25;;;;;;;18.53;9.30;;;1.60;99.90;;;;;;5094860;28;20052;-83
2024/01/20 00:57:51;;;;;;;17.63;9.43;;;1.60;99.90;;;;;;5094632;28;20051;-84
2024/01/20 01:00:17;;;;;;;19.10;8.73;;;1.60;99.90;;;;;;5094911;28;20056;-84
2024/01/20 01:02:43;;;;;;;20.73;8.63;;;1.60;99.90;;;;;;5094010;28;20143;-83
2024/01/20 01:05:09;;;;;;;18.03;8.43;;;1.60;99.90;;;;;;5094944;28;20052;-84
2024/01/20 01:07:35;;;;;;;17.05;8.77;;;1.60;99.90;;;;;;5094508;28;20048;-82
2024/01/20 01:10:03;;;;;;;18.23;9.43;;;1.60;99.90;;;;;;5094653;28;20055;-84
2024/01/20 01:12:29;;;;;;;16.63;8.82;;;1.70;99.90;;;;;;5094779;28;20052;-84
2024/01/20 01:14:55;;;;;;;17.55;8.35;;;1.70;99.90;;;;;;5094637;28;20102;-84
2024/01/20 01:17:21;;;;;;;19.50;8.57;;;1.70;99.90;;;;;;5094484;28;20450;-84
2024/01/20 01:19:47;;;;;;;18.55;9.65;;;1.70;99.90;;;;;;5094289;28;20051;-84
2024/01/20 01:22:13;;;;;;;16.10;8.83;;;1.60;99.90;;;;;;5094401;28;20040;-84
2024/01/20 01:24:39;;;;;;;19.00;8.10;;;1.70;99.90;;;;;;5094073;28;20036;-83
2024/01/20 01:27:06;;;;;;;19.23;8.77;;;1.70;99.90;;;;;;5094366;28;20047;-83
2024/01/20 01:29:31;;;;;;;24.25;8.85;;;1.70;99.90;;;;;;5094303;28;20059;-83
2024/01/20 01:31:57;;;;;;;15.73;7.87;;;1.70;99.90;;;;;;5094046;28;20548;-83
2024/01/20 01:34:23;;;;;;;17.73;8.20;;;1.70;99.90;;;;;;5094207;28;20055;-84
2024/01/20 01:36:49;;;;;;;16.53;7.87;;;1.70;99.90;;;;;;5094097;28;20086;-84
2024/01/20 01:39:17;;;;;;;16.87;9.10;;;1.70;99.90;;;;;;5093152;28;20130;-83
2024/01/20 01:41:43;;;;;;;14.73;8.57;;;1.70;99.90;;;;;;5092633;28;20087;-83
2024/01/20 01:44:10;;;;;;;20.48;9.00;;;1.70;99.90;;;;;;5093939;28;20040;-83
2024/01/20 01:46:36;;;;;;;18.95;7.75;;;1.60;99.90;;;;;;5094133;28;20101;-84
2024/01/20 01:49:02;;;;;;;22.10;8.60;;;1.60;99.90;;;;;;5093767;28;20051;-83
2024/01/20 01:51:28;;;;;;;15.97;7.13;;;1.70;99.90;;;;;;5093559;28;20127;-83
2024/01/20 01:53:54;;;;;;;19.58;7.75;;;1.70;99.90;;;;;;5092089;28;20371;-83
2024/01/20 01:56:20;;;;;;;16.40;7.35;;;1.70;99.90;;;;;;5092837;28;20397;-83
2024/01/20 01:58:46;;;;;;;18.50;8.53;;;1.60;99.90;;;;;;5094676;28;20043;-83
2024/01/20 02:01:12;;;;;;;14.43;7.88;;;1.60;99.90;;;;;;5094459;28;20047;-83
2024/01/20 02:03:39;;;;;;;17.93;7.80;;;1.60;99.90;;;;;;5093008;28;20059;-84
2024/01/20 02:06:06;;;;;;;16.33;8.50;;;1.70;99.90;;;;;;5093769;28;20438;-84
2024/01/20 02:08:31;;;;;;;13.20;8.32;;;1.70;99.90;;;;;;5092865;28;20051;-84
2024/01/20 02:10:57;;;;;;;18.23;8.97;;;1.70;99.90;;;;;;5093498;28;20044;-84
2024/01/20 02:13:23;;;;;;;21.23;8.40;;;1.60;99.90;;;;;;5093745;28;20075;-84
2024/01/20 02:15:49;;;;;;;16.67;8.80;;;1.70;99.90;;;;;;5093304;28;20044;-84
2024/01/20 02:18:15;;;;;;;20.50;9.77;;;1.70;99.90;;;;;;5092235;28;20056;-83
2024/01/20 02:20:41;;;;;;;22.07;10.23;;;1.60;99.90;;;;;;5092340;28;20174;-83
2024/01/20 02:23:07;;;;;;;19.87;10.50;;;1.60;99.90;;;;;;5093079;28;20041;-82
2024/01/20 02:25:32;;;;;;;16.30;9.73;;;1.60;99.90;;;;;;5093407;28;20044;-83
2024/01/20 02:27:58;;;;;;;23.40;10.10;;;1.60;99.90;;;;;;5093244;28;20048;-83
2024/01/20 02:30:24;;;;;;;21.17;10.40;;;1.60;99.90;;;;;;5093333;28;20048;-83
2024/01/20 02:32:50;;;;;;;16.63;9.67;;;1.60;99.90;;;;;;5092150;28;20070;-83
2024/01/20 02:35:20;;;;;;;21.40;11.20;;;1.60;99.90;;;;;;5093618;28;20051;-82
2024/01/20 02:37:46;;;;;;;21.52;11.68;;;1.60;99.90;;;;;;5092209;28;20489;-81
2024/01/20 02:40:11;;;;;;;22.70;10.87;;;1.60;99.90;;;;;;5093335;28;20087;-82
2024/01/20 02:42:37;;;;;;;22.87;10.90;;;1.60;99.90;;;;;;5091660;28;20409;-82
2024/01/20 02:45:04;;;;;;;19.87;11.70;;;1.60;99.90;;;;;;5093099;28;20150;-82
2024/01/20 02:47:29;;;;;;;21.58;12.13;;;1.50;99.90;;;;;;5093272;28;20075;-82
2024/01/20 02:49:55;;;;;;;22.00;12.90;;;1.50;99.90;;;;;;5093075;28;20048;-82
2024/01/20 02:52:21;;;;;;;24.50;13.17;;;1.50;99.90;;;;;;5092403;28;20052;-82
2024/01/20 02:54:46;;;;;;;23.27;14.13;;;1.50;99.90;;;;;;5074898;28;20505;-76
2024/01/20 02:57:12;;;;;;;21.17;13.47;;;1.50;99.90;;;;;;5091934;28;20098;-82
2024/01/20 02:59:38;;;;;;;23.33;14.17;;;1.40;99.90;;;;;;5091976;28;20516;-82
2024/01/20 03:02:03;;;;;;;23.30;15.03;;;1.40;99.90;;;;;;5092882;28;20052;-82
2024/01/20 03:04:30;;;;;;;27.60;15.68;;;1.30;99.90;;;;;;5092760;28;20109;-83
2024/01/20 03:06:56;;;;;;;26.60;16.57;;;1.30;99.90;;;;;;5096829;28;20048;-82
2024/01/20 03:09:22;;;;;;;23.93;16.53;;;1.30;99.90;;;;;;5095825;28;20083;-82
2024/01/20 03:11:47;;;;;;;30.47;18.57;;;1.30;99.90;;;;;;5096876;28;20090;-82
2024/01/20 03:14:14;;;;;;;25.55;17.88;;;1.20;99.90;;;;;;5096944;28;20051;-81
2024/01/20 03:16:39;;;;;;;27.77;18.40;;;1.30;99.90;;;;;;5097073;28;20048;-82
2024/01/20 03:19:06;;;;;;;29.67;19.33;;;1.20;99.90;;;;;;5096631;28;20048;-82
2024/01/20 03:21:33;;;;;;;33.30;20.95;;;1.20;99.90;;;;;;5097037;28;20084;-82
2024/01/20 03:23:58;;;;;;;29.02;18.98;;;1.20;99.90;;;;;;5096438;28;20036;-81
2024/01/20 03:26:24;;;;;;;31.37;20.87;;;1.20;99.90;;;;;;5096386;28;20044;-82
2024/01/20 03:28:50;;;;;;;33.13;21.20;;;1.10;99.90;;;;;;5096458;28;20043;-77
2024/01/20 03:31:15;;;;;;;30.83;20.90;;;1.10;99.90;;;;;;5096006;28;20048;-82
2024/01/20 03:33:41;;;;;;;29.07;20.97;;;1.20;99.90;;;;;;5096714;28;20046;-82
2024/01/20 03:36:07;;;;;;;30.90;20.30;;;1.10;99.90;;;;;;5095973;28;20068;-82
2024/01/20 03:38:32;;;;;;;31.90;20.87;;;1.10;99.90;;;;;;5096433;28;20044;-82
2024/01/20 03:40:58;;;;;;;33.50;21.60;;;1.10;99.90;;;;;;5096204;28;20122;-82
2024/01/20 03:43:24;;;;;;;33.40;21.37;;;1.10;99.90;;;;;;5096298;28;20094;-83
2024/01/20 03:45:53;;;;;;;28.67;20.93;;;1.10;99.90;;;;;;5096447;28;20047;-83
2024/01/20 03:48:19;;;;;;;29.65;20.40;;;1.10;99.90;;;;;;5096311;28;20494;-82
2024/01/20 03:50:44;;;;;;;34.40;20.93;;;1.10;99.90;;;;;;5096237;28;20173;-83
2024/01/20 03:53:10;;;;;;;32.23;21.07;;;1.10;99.90;;;;;;5095952;28;20036;-82
2024/01/20 03:55:36;;;;;;;33.57;20.27;;;1.10;99.90;;;;;;5095245;28;20039;-83
2024/01/20 03:58:02;;;;;;;27.80;20.53;;;1.10;99.90;;;;;;5095884;28;20456;-82
2024/01/20 04:00:28;;;;;;;33.93;21.50;;;1.10;99.90;;;;;;5096217;28;20285;-83
2024/01/20 04:02:54;;;;;;;28.43;21.10;;;1.10;99.90;;;;;;5095677;28;20056;-77
2024/01/20 04:05:19;;;;;;;30.30;20.58;;;1.10;99.90;;;;;;5096000;28;20048;-83
2024/01/20 04:07:46;;;;;;;30.77;22.23;;;1.10;99.90;;;;;;5095863;28;20052;-84
2024/01/20 04:10:12;;;;;;;33.33;21.63;;;1.10;99.90;;;;;;5095653;28;20091;-83
2024/01/20 04:12:41;;;;;;;29.47;20.93;;;1.10;99.90;;;;;;5095788;28;20083;-83
2024/01/20 04:15:08;;;;;;;31.80;20.40;;;1.20;99.90;;;;;;5095540;28;20481;-83
2024/01/20 04:17:34;;;;;;;29.15;20.67;;;1.20;99.90;;;;;;5094994;28;20482;-83
2024/01/20 04:20:00;;;;;;;30.40;20.73;;;1.20;99.90;;;;;;5095461;28;20122;-83
2024/01/20 04:22:26;;;;;;;31.50;20.40;;;1.20;99.90;;;;;;5095587;28;20277;-83
2024/01/20 04:24:51;;;;;;;30.33;20.97;;;1.20;99.90;;;;;;5095433;28;20508;-83
2024/01/20 04:27:17;;;;;;;35.73;21.73;;;1.30;99.90;;;;;;5095291;28;20044;-83
2024/01/20 04:29:43;;;;;;;28.80;22.37;;;1.20;99.90;;;;;;5095690;28;20047;-83
2024/01/20 04:32:08;;;;;;;33.10;21.23;;;1.10;99.90;;;;;;5095260;28;20044;-83
2024/01/20 04:34:34;;;;;;;31.20;21.00;;;1.20;99.90;;;;;;5094263;28;20047;-83
2024/01/20 04:37:00;;;;;;;32.73;21.60;;;1.10;99.90;;;;;;5095184;28;20474;-82
2024/01/20 04:39:25;;;;;;;31.87;20.70;;;1.10;99.90;;;;;;5095012;28;20040;-83
2024/01/20 04:41:51;;;;;;;35.77;21.33;;;1.10;99.90;;;;;;5095244;28;20131;-83
2024/01/20 04:44:17;;;;;;;35.47;23.20;;;1.10;99.90;;;;;;5093768;28;20037;-83
2024/01/20 04:46:43;;;;;;;31.87;21.73;;;1.10;99.90;;;;;;5095130;28;20135;-83
2024/01/20 04:49:08;;;;;;;31.17;21.50;;;1.10;99.90;;;;;;5094907;28;20044;-83
2024/01/20 04:51:34;;;;;;;33.93;22.93;;;1.00;99.90;;;;;;5095084;28;20051;-84
2024/01/20 04:54:00;;;;;;;35.83;23.50;;;1.00;99.90;;;;;;5094859;28;20044;-80
2024/01/20 04:56:25;;;;;;;30.23;21.90;;;1.00;99.90;;;;;;5095047;28;20070;-83
2024/01/20 04:58:53;;;;;;;32.00;20.50;;;1.00;99.90;;;;;;5094949;28;20490;-83
2024/01/20 05:01:19;;;;;;;31.73;20.42;;;1.00;99.90;;;;;;5094658;28;20152;-84
2024/01/20 05:03:45;;;;;;;36.07;21.93;;;0.90;99.90;;;;;;5093545;28;20083;-83
2024/01/20 05:06:11;;;;;;;32.75;22.90;;;0.90;99.90;;;;;;5094662;28;20036;-84
2024/01/20 05:08:37;;;;;;;39.08;22.55;;;0.90;99.90;;;;;;5094431;28;20051;-84
2024/01/20 05:11:03;;;;;;;33.83;22.33;;;0.90;99.90;;;;;;5094445;28;20048;-83
2024/01/20 05:13:28;;;;;;;35.20;21.80;;;0.90;99.90;;;;;;5094604;28;20093;-83
2024/01/20 05:15:54;;;;;;;37.70;22.20;;;0.90;99.90;;;;;;5094621;28;20051;-84
2024/01/20 05:18:20;;;;;;;35.30;23.20;;;1.00;99.90;;;;;;5094263;28;20044;-84
2024/01/20 05:20:46;;;;;;;37.65;21.90;;;1.00;99.90;;;;;;5094464;28;20079;-84
2024/01/20 05:23:12;;;;;;;35.97;23.30;;;0.90;99.90;;;;;;5092952;28;20098;-84
2024/01/20 05:25:38;;;;;;;34.97;22.77;;;0.90;99.90;;;;;;5093284;28;20199;-84
2024/01/20 05:28:04;;;;;;;41.07;22.67;;;0.90;99.90;;;;;;5093554;28;20105;-81
2024/01/20 05:30:30;;;;;;;33.28;21.40;;;0.90;99.90;;;;;;5076212;28;20040;-84
2024/01/20 05:32:55;;;;;;;35.50;22.33;;;0.90;99.90;;;;;;5093062;28;20051;-84
2024/01/20 05:35:21;;;;;;;38.83;23.93;;;0.90;99.90;;;;;;5094060;28;20040;-84
2024/01/20 05:37:47;;;;;;;35.50;23.60;;;0.90;99.90;;;;;;5094215;28;20470;-84
2024/01/20 05:40:13;;;;;;;32.07;21.97;;;0.90;99.90;;;;;;5093970;28;20122;-85
2024/01/20 05:42:39;;;;;;;33.70;22.93;;;0.90;99.90;;;;;;5094121;28;20051;-84
2024/01/20 05:45:08;;;;;;;35.90;22.80;;;0.90;99.90;;;;;;5093728;28;20059;-84
2024/01/20 05:47:35;;;;;;;39.38;22.40;;;0.90;99.90;;;;;;5094004;28;20048;-84
2024/01/20 05:50:02;;;;;;;39.13;23.60;;;0.90;99.90;;;;;;5093931;28;20048;-84
2024/01/20 05:52:28;;;;;;;41.20;24.45;;;0.90;99.90;;;;;;5093714;28;20048;-83
2024/01/20 05:54:54;;;;;;;45.40;23.40;;;0.90;99.90;;;;;;5094101;28;20040;-84
2024/01/20 05:57:19;;;;;;;36.37;23.03;;;0.90;99.90;;;;;;5093640;28;20050;-84
2024/01/20 05:59:45;;;;;;;38.77;23.30;;;0.90;99.90;;;;;;5093796;28;20055;-84
2024/01/20 06:02:11;;;;;;;40.40;23.67;;;0.90;99.90;;;;;;5093190;28;20079;-83
2024/01/20 06:04:36;;;;;;;42.20;23.03;;;0.90;99.90;;;;;;5093318;28;20056;-84
2024/01/20 06:07:02;;;;;;;36.33;21.50;;;0.90;99.90;;;;;;5075844;28;20036;-84
2024/01/20 06:09:28;;;;;;;39.90;23.43;;;0.90;99.90;;;;;;5093427;28;20109;-83
2024/01/20 06:11:54;;;;;;;37.43;23.80;;;0.90;99.90;;;;;;5092400;28;20039;-84
2024/01/20 06:14:19;;;;;;;42.10;24.37;;;0.90;99.90;;;;;;5093399;28;20126;-84
2024/01/20 06:16:45;;;;;;;37.97;23.40;;;0.80;99.90;;;;;;5093783;28;20052;-84
2024/01/20 06:19:11;;;;;;;39.60;24.30;;;0.80;99.90;;;;;;5093019;28;20051;-83
2024/01/20 06:21:36;;;;;;;44.20;24.83;;;0.80;99.90;;;;;;5093584;28;20166;-84
2024/01/20 06:24:02;;;;;;;46.13;25.77;;;0.80;99.90;;;;;;5093437;28;20101;-84
2024/01/20 06:26:28;;;;;;;41.63;24.25;;;0.70;99.90;;;;;;5092697;28;20047;-83
2024/01/20 06:28:54;;;;;;;37.83;23.67;;;0.70;99.90;;;;;;5094735;28;20040;-83
2024/01/20 06:31:27;;;;;;;41.63;24.70;;;0.70;99.90;;;;;;5093515;28;20040;-83
2024/01/20 06:33:53;;;;;;;43.08;25.92;;;0.70;99.90;;;;;;5093611;28;20448;-83
2024/01/20 06:36:21;;;;;;;42.83;25.85;;;0.80;99.90;;;;;;5093254;28;20102;-83
2024/01/20 06:38:47;;;;;;;42.55;25.45;;;0.70;99.90;;;;;;5093355;28;20048;-84
2024/01/20 06:41:14;;;;;;;44.17;24.98;;;0.70;99.90;;;;;;5094850;28;20485;-82
2024/01/20 06:43:39;;;;;;;39.53;24.58;;;0.70;99.90;;;;;;5096240;28;20093;-84
2024/01/20 06:46:05;;;;;;;45.27;24.57;;;0.70;99.90;;;;;;5097338;28;20055;-83
2024/01/20 06:48:33;;;;;;;41.97;25.27;;;0.70;99.90;;;;;;5097186;28;20087;-83
2024/01/20 06:51:00;;;;;;;42.60;24.75;;;0.70;99.90;;;;;;5097528;28;20039;-82
2024/01/20 06:53:30;;;;;;;39.65;25.23;;;0.70;99.90;;;;;;5097146;28;20052;-82
2024/01/20 06:55:56;;;;;;;43.58;24.77;;;0.70;99.90;;;;;;5097414;28;20044;-82
2024/01/20 06:58:23;;;;;;;41.15;24.15;;;0.70;99.90;;;;;;5079174;28;20097;-82
2024/01/20 07:00:49;;;;;;;41.75;25.02;;;0.70;99.90;;;;;;5097480;28;20453;-82
2024/01/20 07:03:15;;;;;;;41.83;24.38;;;0.70;99.90;;;;;;5096736;28;20048;-81
2024/01/20 07:05:41;;;;;;;42.93;22.53;;;0.70;99.90;;;;;;5095936;28;20509;-82
2024/01/20 07:08:08;;;;;;;45.15;24.67;;;0.70;99.90;;;;;;5096112;28;20055;-82
2024/01/20 07:10:34;;;;;;;44.33;25.92;;;0.80;99.90;;;;;;5095613;28;20148;-81
2024/01/20 07:13:00;;;;;;;44.53;26.60;;;0.70;99.90;;;;;;5096963;28;20083;-82
2024/01/20 07:15:26;;;;;;;45.92;24.67;;;0.70;99.90;;;;;;5096728;28;20130;-81
2024/01/20 07:17:56;;;;;;;36.40;23.38;;;0.70;99.90;;;;;;5096868;28;20558;-81
2024/01/20 07:20:22;;;;;;;46.92;26.17;;;0.80;99.90;;;;;;5096648;28;20040;-81
2024/01/20 07:22:49;;;;;;;43.00;26.35;;;0.80;99.90;;;;;;5096679;28;20047;-81
2024/01/20 07:25:16;;;;;;;45.22;26.73;;;0.80;99.90;;;;;;5096471;28;20524;-81
2024/01/20 07:27:42;;;;;;;40.25;25.38;;;0.80;99.90;;;;;;5096732;28;20043;-81
2024/01/20 07:30:08;;;;;;;42.63;26.40;;;0.90;99.90;;;;;;5096684;28;20503;-81
2024/01/20 07:32:34;;;;;;;41.92;24.80;;;0.90;99.90;;;;;;5096416;28;20203;-80
2024/01/20 07:34:59;;;;;;;41.93;24.80;;;0.90;99.90;;;;;;5096572;28;20135;-81
2024/01/20 07:37:25;;;;;;;40.33;25.93;;;0.90;99.90;;;;;;5096325;28;20052;-80
2024/01/20 07:39:51;;;;;;;40.50;24.40;;;1.00;99.90;;;;;;5096499;28;20048;-81
2024/01/20 07:42:17;;;;;;;52.53;28.57;;;1.00;99.90;;;;;;5095467;28;20588;-81
2024/01/20 07:44:42;;;;;;;42.83;25.43;;;1.00;99.90;;;;;;5096204;28;20093;-80
2024/01/20 07:47:08;;;;;;;40.57;26.83;;;1.10;99.90;;;;;;5096286;28;20043;-80
2024/01/20 07:49:34;;;;;;;41.53;24.90;;;1.10;99.90;;;;;;5096118;28;20048;-80
2024/01/20 07:51:59;;;;;;;41.33;26.00;;;1.10;99.90;;;;;;5094781;28;20052;-80
2024/01/20 07:54:25;;;;;;;48.17;26.63;;;1.10;99.90;;;;;;5096109;28;20044;-80
2024/01/20 07:56:50;;;;;;;39.67;25.30;;;1.20;99.90;;;;;;5095476;28;20070;-80
2024/01/20 07:59:16;;;;;;;40.33;25.73;;;1.20;99.90;;;;;;5095748;28;20089;-80
2024/01/20 08:01:42;;;;;;;47.00;27.93;;;1.20;99.90;;;;;;5095894;28;20044;-80
2024/01/20 08:04:08;;;;;;;49.83;28.33;;;1.20;99.90;;;;;;5096083;28;20160;-80
2024/01/20 08:06:37;;;;;;;50.57;27.63;;;1.30;99.90;;;;;;5095698;28;20048;-80
2024/01/20 08:09:02;;;;;;;44.58;27.83;;;1.30;99.90;;;;;;5095934;28;20048;-80
2024/01/20 08:11:28;;;;;;;44.80;28.20;;;1.30;99.90;;;;;;5094664;28;20050;-80
2024/01/20 08:13:54;;;;;;;45.73;27.57;;;1.30;99.90;;;;;;5096124;28;20478;-80
2024/01/20 08:16:20;;;;;;;46.33;28.13;;;1.30;99.90;;;;;;5077880;28;20036;-80
2024/01/20 08:18:46;;;;;;;47.73;28.77;;;1.40;99.90;;;;;;5095502;28;20085;-80
2024/01/20 08:21:11;;;;;;;51.05;29.95;;;1.40;99.90;;;;;;5095661;28;20285;-80
2024/01/20 08:23:37;;;;;;;44.97;28.63;;;1.40;99.90;;;;;;5095359;28;20047;-80
2024/01/20 08:26:03;;;;;;;51.10;28.80;;;1.40;99.90;;;;;;5095819;28;20043;-80
2024/01/20 08:28:29;;;;;;;49.80;28.52;;;1.40;99.90;;;;;;5095336;28;20114;-80
2024/01/20 08:30:54;;;;;;;49.47;30.17;;;1.50;99.90;;;;;;5095485;28;20401;-80
2024/01/20 08:33:20;;;;;;;51.73;27.77;;;1.50;99.90;;;;;;5095402;28;20040;-80
2024/01/20 08:35:46;;;;;;;45.37;28.57;;;1.40;99.90;;;;;;5095181;28;20044;-81
2024/01/20 08:38:12;;;;;;;50.77;28.20;;;1.50;99.90;;;;;;5095395;28;20067;-81
2024/01/20 08:40:38;;;;;;;47.97;27.40;;;1.50;99.90;;;;;;5093965;28;20040;-80
2024/01/20 08:43:03;;;;;;;51.80;29.83;;;1.50;99.90;;;;;;5095358;28;20478;-81
2024/01/20 08:45:29;;;;;;;44.57;27.57;;;1.50;99.90;;;;;;5094987;28;20123;-81
2024/01/20 08:47:55;;;;;;;48.50;28.13;;;1.60;99.90;;;;;;5077288;28;20052;-81
2024/01/20 08:50:20;;;;;;;51.30;28.83;;;1.60;99.90;;;;;;5095078;28;20059;-82
2024/01/20 08:52:46;;;;;;;45.93;27.27;;;1.60;99.90;;;;;;5095249;28;20040;-81
2024/01/20 08:55:12;;;;;;;45.73;26.13;;;1.70;99.90;;;;;;5093874;28;20393;-82
2024/01/20 08:57:38;;;;;;;46.60;26.60;;;1.60;99.90;;;;;;5094760;28;20127;-82
2024/01/20 09:00:07;;;;;;;45.23;27.07;;;1.70;99.90;;;;;;5094966;28;20277;-82
2024/01/20 09:02:33;;;;;;;44.15;26.27;;;1.70;99.90;;;;;;5093030;28;20044;-82
2024/01/20 09:04:58;;;;;;;45.60;26.33;;;1.80;99.90;;;;;;5094400;28;20414;-82
2024/01/20 09:07:24;;;;;;;44.40;26.13;;;1.80;99.90;;;;;;5094718;28;20484;-83
2024/01/20 09:09:52;;;;;;;40.27;25.13;;;1.80;99.90;;;;;;5094586;28;20040;-84
2024/01/20 09:12:18;;;;;;;45.92;24.70;;;1.80;99.90;;;;;;5094681;28;20088;-84
2024/01/20 09:14:44;;;;;;;46.27;26.37;;;1.80;99.90;;;;;;5094486;28;20051;-83
2024/01/20 09:17:10;;;;;;;42.45;25.67;;;1.90;99.90;;;;;;5094530;28;20055;-83
2024/01/20 09:19:36;;;;;;;42.23;25.20;;;1.80;99.90;;;;;;5094326;28;20044;-83
2024/01/20 09:22:01;;;;;;;41.20;24.57;;;1.90;99.90;;;;;;5094660;28;20177;-83
2024/01/20 09:24:27;;;;;;;44.37;24.13;;;1.90;99.90;;;;;;5093405;28;20488;-83
2024/01/20 09:26:53;;;;;;;41.77;23.60;;;1.90;99.90;;;;;;5093200;28;20051;-82
2024/01/20 09:29:18;;;;;;;43.87;23.90;;;1.90;99.90;;;;;;5094324;28;20488;-81
2024/01/20 09:31:45;;;;;;;37.70;22.47;;;1.90;99.90;;;;;;5094171;28;20052;-81
2024/01/20 09:34:11;;;;;;;42.58;24.33;;;1.90;99.90;;;;;;5093072;28;20044;-81
2024/01/20 09:36:37;;;;;;;36.53;22.70;;;1.90;99.90;;;;;;5093982;28;20050;-81
2024/01/20 09:39:04;;;;;;;39.85;23.75;;;1.90;99.90;;;;;;5093077;28;20039;-81
2024/01/20 09:41:30;;;;;;;37.33;22.67;;;1.90;99.90;;;;;;5094175;28;20054;-81
2024/01/20 09:43:56;;;;;;;41.37;23.37;;;2.00;99.90;;;;;;5094042;28;20048;-80
2024/01/20 09:46:22;;;;;;;41.28;24.08;;;2.00;99.90;;;;;;5094082;28;20286;-81
2024/01/20 09:48:55;;;;;;;44.47;24.27;;;2.00;99.90;;;;;;5093780;28;20047;-80
2024/01/20 09:51:24;;;;;;;41.95;23.08;;;2.00;99.90;;;;;;5093999;28;20044;-81
2024/01/20 09:53:55;;;;;;;37.33;21.00;;;2.10;99.90;;;;;;5093768;28;20052;-80
2024/01/20 09:56:21;;;;;;;45.15;23.48;;;2.00;99.90;;;;;;5093916;28;20474;-81
2024/01/20 09:58:49;;;;;;;35.10;21.65;;;2.10;99.90;;;;;;5093665;28;20040;-81
2024/01/20 10:01:16;;;;;;;39.10;22.90;;;2.10;99.90;;;;;;5093594;28;20571;-81
2024/01/20 10:03:43;;;;;;;37.65;23.00;;;2.10;99.90;;;;;;5091939;28;20071;-81
2024/01/20 10:06:09;;;;;;;39.95;23.50;;;2.10;99.90;;;;;;5093437;28;20559;-81
2024/01/20 10:08:34;;;;;;;37.37;20.93;;;2.20;99.90;;;;;;5093490;28;20047;-80
2024/01/20 10:11:04;;;;;;;33.90;22.40;;;2.20;99.90;;;;;;5092475;28;20040;-81
2024/01/20 10:13:30;;;;;;;37.63;21.08;;;2.20;99.90;;;;;;5092616;28;20050;-81
2024/01/20 10:15:56;;;;;;;38.72;24.38;;;2.30;99.90;;;;;;5091567;28;20090;-81
2024/01/20 10:18:22;;;;;;;39.92;22.58;;;2.30;99.90;;;;;;5093524;28;20048;-81
2024/01/20 10:20:48;;;;;;;32.20;18.73;;;2.30;99.90;;;;;;5093351;28;20048;-81
2024/01/20 10:23:13;;;;;;;37.13;21.10;;;2.30;99.90;;;;;;5093543;28;20055;-81
2024/01/20 10:25:39;;;;;;;39.93;23.87;;;2.30;99.90;;;;;;5092067;28;20379;-80
2024/01/20 10:28:07;;;;;;;32.57;20.63;;;2.30;99.90;;;;;;5093454;28;20047;-81
2024/01/20 10:30:33;;;;;;;36.28;20.75;;;2.30;99.90;;;;;;5093513;28;20052;-81
2024/01/20 10:32:59;;;;;;;37.57;21.43;;;2.30;99.90;;;;;;5093188;28;20393;-81
2024/01/20 10:35:25;;;;;;;35.67;22.70;;;2.30;99.90;;;;;;5093311;28;20450;-82
2024/01/20 10:37:51;;;;;;;38.13;20.27;;;2.20;99.90;;;;;;5092061;28;20131;-81
2024/01/20 10:40:18;;;;;;;38.38;20.10;;;2.30;99.90;;;;;;5093328;28;20097;-81
2024/01/20 10:42:54;;;;;;;34.90;20.73;;;2.20;99.90;;;;;;5093087;28;20048;-80
2024/01/20 10:45:23;;;;;;;33.50;20.30;;;2.30;99.90;;;;;;5093307;28;20044;-80
2024/01/20 10:47:58;;;;;;;36.58;21.73;;;2.30;99.90;;;;;;5093035;28;20055;-80
2024/01/20 10:50:27;;;;;;;27.20;18.10;;;2.30;99.90;;;;;;5093145;28;20048;-79
2024/01/20 10:52:52;;;;;;;35.65;20.42;;;2.30;99.90;;;;;;5092965;28;20075;-79
2024/01/20 10:55:20;;;;;;;40.97;21.97;;;2.20;99.90;;;;;;5091903;28;20497;-79
2024/01/20 10:57:47;;;;;;;39.95;23.35;;;2.20;99.90;;;;;;5093081;28;20113;-79
2024/01/20 11:00:14;;;;;;;36.30;21.90;;;2.30;99.90;;;;;;5075484;28;20056;-79
2024/01/20 11:02:41;;;;;;;37.78;22.90;;;2.20;99.90;;;;;;5091740;28;20105;-78
2024/01/20 11:05:26;;;;;;;40.92;25.52;;;2.20;99.90;;;;;;5091763;28;20532;-79
2024/01/20 11:08:04;;;;;;;40.45;22.23;;;2.20;99.90;;;;;;5092928;28;20040;-78
2024/01/20 11:10:29;;;;;;;43.42;25.88;;;2.20;99.90;;;;;;5093075;28;20048;-79
2024/01/20 11:13:05;;;;;;;40.23;24.80;;;2.20;99.90;;;;;;5092923;28;20106;-79
2024/01/20 11:15:33;;;;;;;46.50;27.10;;;2.20;99.90;;;;;;5093154;28;20278;-78
2024/01/20 11:17:59;;;;;;;43.97;26.40;;;2.20;99.90;;;;;;5092776;28;20109;-78
2024/01/20 11:20:26;;;;;;;48.05;27.88;;;2.20;99.90;;;;;;5093035;28;20448;-78
2024/01/20 11:22:53;;;;;;;44.05;26.45;;;2.10;99.90;;;;;;5092372;28;20569;-78
2024/01/20 11:25:22;;;;;;;46.35;29.30;;;2.10;99.90;;;;;;5091657;28;20044;-77
2024/01/20 11:27:50;;;;;;;47.35;27.77;;;2.10;99.90;;;;;;5096462;28;20079;-78
2024/01/20 11:30:48;;;;;;;48.88;28.15;;;2.10;99.90;;;;;;5096700;28;20048;-78
2024/01/20 11:33:15;;;;;;;45.58;27.70;;;2.10;99.90;;;;;;5051729;28;20044;-78
2024/01/20 11:35:41;;;;;;;49.65;30.02;;;2.20;99.90;;;;;;5095293;28;20052;-78
2024/01/20 11:38:07;;;;;;;76.43;39.13;;;2.20;99.90;;;;;;5096334;28;20055;-78
2024/01/20 11:40:33;;;;;;;51.42;31.92;;;2.20;99.90;;;;;;5096134;28;20524;-78
2024/01/20 11:43:09;;;;;;;51.00;32.57;;;2.30;99.90;;;;;;5095836;28;20052;-78
2024/01/20 11:45:35;;;;;;;49.05;29.77;;;2.20;99.90;;;;;;5096097;28;20626;-78
2024/01/20 11:48:00;;;;;;;47.77;28.87;;;2.30;99.90;;;;;;5096112;28;20097;-79
2024/01/20 11:50:26;;;;;;;45.90;26.90;;;2.30;99.90;;;;;;5096232;28;20048;-79
2024/01/20 11:52:52;;;;;;;45.87;29.03;;;2.30;99.90;;;;;;5095993;28;20126;-79
2024/01/20 11:55:18;;;;;;;44.57;27.97;;;2.40;99.90;;;;;;5096166;28;20050;-79
2024/01/20 11:57:44;;;;;;;47.00;26.70;;;2.40;99.90;;;;;;5096180;28;20136;-79
2024/01/20 12:00:11;;;;;;;48.97;28.23;;;2.40;99.90;;;;;;5096221;28;20071;-79
2024/01/20 12:02:37;;;;;;;43.45;27.45;;;2.40;99.90;;;;;;5094544;28;20051;-79
2024/01/20 12:05:04;;;;;;;45.83;27.95;;;2.50;99.90;;;;;;5095469;28;20135;-79
2024/01/20 12:07:29;;;;;;;38.03;24.95;;;2.50;99.90;;;;;;5096137;28;20048;-79
2024/01/20 12:09:56;;;;;;;43.73;25.50;;;2.50;99.90;;;;;;5095780;28;20116;-78
2024/01/20 12:12:22;;;;;;;45.45;24.45;;;2.50;99.90;;;;;;5095799;28;20048;-79
2024/01/20 12:14:49;;;;;;;41.83;25.38;;;2.50;99.90;;;;;;5095567;28;20046;-78
2024/01/20 12:17:16;;;;;;;42.53;25.45;;;2.60;99.90;;;;;;5094608;28;20055;-79
2024/01/20 12:19:41;;;;;;;40.40;24.17;;;2.60;99.90;;;;;;5094956;28;20059;-78
2024/01/20 12:22:09;;;;;;;36.93;24.17;;;2.60;99.90;;;;;;5095479;28;20047;-78
2024/01/20 12:24:35;;;;;;;36.67;23.48;;;2.70;99.90;;;;;;5095576;28;20367;-78
2024/01/20 12:27:04;;;;;;;36.88;22.73;;;2.70;99.90;;;;;;5095286;28;20545;-77
2024/01/20 12:29:30;;;;;;;37.42;23.25;;;2.70;99.90;;;;;;5095491;28;20051;-77
2024/01/20 12:31:57;;;;;;;35.10;21.05;;;2.70;99.90;;;;;;5095331;28;20059;-76
2024/01/20 12:34:26;;;;;;;33.25;20.52;;;2.70;99.90;;;;;;5095148;28;20481;-76